Aérodrome :
LOGIN :

S'inscrire | Disclaimer

   EN    FR    IT 

 










Légende :    VFR   VFR Marginal   IFR   IFR Intensif   IFR Très Intensif
Visi : 
Plafond : 
>= 8 km
>= 3000ft
5 à 8 km
1000 à 3000 ft
1500m à 5 km
500 à 1000 ft
800 à 1500m
200 à 500 ft
< 800m
< 200 ft
Symboles :   Orages  Brouillard  Fortes neiges  Fortes précipitations  Vent > 20 kt
SIGMETs :   Divers  Orages  Givrage  Turbulence  Onde Orograph.  Cendres Volcan.







- Altitude de l'aérodrome : 256 ft
- Code IATA : CFR
- Voir les cartes d'approche


LFRK - Caen

DERNIER METAR :
  • 201430Z AUTO 23008KT 190V260 9999 SCT044 19/10 Q1020 NOSIG

METARs EXPIRÉS :
  • 201400Z AUTO 21009KT 180V250 9999 BKN044 19/10 Q1020 NOSIG
  • 201330Z AUTO 22009KT 190V270 9999 BKN043 19/10 Q1020 NOSIG
  • 201300Z AUTO 21007KT 160V250 9999 SCT042 19/11 Q1020 NOSIG
  • 201230Z AUTO 20009KT 170V240 9999 BKN037 BKN046 19/11 Q1021 NOSIG
  • 201200Z AUTO 21010KT 170V260 9999 BKN035 19/11 Q1021 NOSIG

TAF TAF LFRK
Valide du 20 à 15h jusqu'au 21 à 00h UTC


201400Z 2015/2024 21010KT 9999 SCT030
Météo : +33 2 31 26 68 11
Pas de NOTAMs connus pour ce terrain.



MET'MAP, la Météo Aéronautique d'un coup d'oeil ! - Copyright ORBIFLY Décembre 2007 - Disclaimer

ORBIFLY MET'MAP TEAM :

Programmation & Développement : Alexandra Zaïnal
Conception & Développement : Baudouin d'Aumeries
Co-Programmation & Développement : Marc-Olivier Méhu
Soutien technique & logistique : Manuel Goepfert

Contact : metmap@orbifly.com




SOURCES & CREDITS :

   NOAA